Time;durP1;ratioP1;P1;durP2;ratioP2;P2;SDS_P1;SDS_P2;PMS_P1;PMS_P2;Temp;Humidity;BMP_temperature;BMP_pressure;BME280_temperature;BME280_humidity;BME280_pressure;Samples;Min_cycle;Max_cycle;Signal;HPM_P1;HPM_P2
2022/11/05 00:17:28;;;;;;;18.65;7.35;;;;;;;1.14;100.00;101013.34;5016545;28;20049;-61
2022/11/05 00:19:53;;;;;;;11.88;7.32;;;;;;;1.14;100.00;101009.91;5054204;28;21338;-61
2022/11/05 00:28:02;;;;;;;8.88;5.57;;;;;;;1.25;100.00;101034.25;5044089;28;20060;-61
2022/11/05 00:30:28;;;;;;;12.40;6.18;;;;;;;1.30;100.00;101039.13;5053403;28;20028;-61
2022/11/05 00:33:01;;;;;;;14.98;5.93;;;;;;;1.31;100.00;101038.19;5051060;28;20145;-61
2022/11/05 00:35:26;;;;;;;8.35;4.30;;;;;;;1.28;100.00;101049.69;5053507;28;20025;-61
2022/11/05 00:37:52;;;;;;;13.00;4.68;;;;;;;1.29;100.00;101050.50;5049126;28;20036;-61
2022/11/05 00:40:18;;;;;;;7.88;4.18;;;;;;;1.30;100.00;101041.75;5049694;28;20481;-61
2022/11/05 00:45:29;;;;;;;4.38;3.63;;;;;;;1.31;100.00;101052.06;5059953;28;20058;-60
2022/11/05 00:50:39;;;;;;;10.88;4.40;;;;;;;1.38;100.00;101042.00;5063580;28;20035;-62
2022/11/05 00:53:04;;;;;;;9.00;3.40;;;;;;;1.37;100.00;101044.72;5054774;28;20017;-61
2022/11/05 00:55:41;;;;;;;6.97;4.15;;;;;;;1.39;100.00;101035.81;5063664;28;20035;-61
2022/11/05 00:58:12;;;;;;;5.50;3.53;;;;;;;1.40;100.00;101045.31;5052817;28;20036;-61
2022/11/05 01:00:40;;;;;;;6.55;4.22;;;;;;;1.44;100.00;101038.06;5054059;28;20094;-61
2022/11/05 01:03:15;;;;;;;7.13;4.15;;;;;;;1.45;100.00;101024.91;5051343;28;20478;-61
2022/11/05 01:05:45;;;;;;;8.38;3.60;;;;;;;1.45;100.00;101024.91;5047263;28;20528;-61
2022/11/05 01:08:13;;;;;;;11.73;4.38;;;;;;;1.50;100.00;101016.72;5053320;28;20060;-62
2022/11/05 01:10:50;;;;;;;7.43;3.97;;;;;;;1.51;100.00;101013.97;5057862;28;20037;-61
2022/11/05 01:13:19;;;;;;;8.23;3.83;;;;;;;1.52;100.00;101020.00;5056215;28;20025;-61
2022/11/05 01:15:45;;;;;;;4.68;3.63;;;;;;;1.51;100.00;101024.41;5055623;28;20052;-61
2022/11/05 01:18:11;;;;;;;9.05;3.97;;;;;;;1.54;100.00;101031.19;5051942;28;20033;-61
2022/11/05 01:20:37;;;;;;;6.07;3.35;;;;;;;1.56;100.00;101033.69;5058948;28;20037;-61
2022/11/05 01:23:02;;;;;;;9.80;4.20;;;;;;;1.55;100.00;101016.31;5054881;28;20044;-61
2022/11/05 01:25:28;;;;;;;5.60;3.75;;;;;;;1.56;100.00;101007.56;5054269;28;20481;-61
2022/11/05 01:27:53;;;;;;;9.82;4.13;;;;;;;1.56;100.00;100994.47;5055622;28;20045;-62
2022/11/05 01:30:18;;;;;;;6.55;3.22;;;;;;;1.59;100.00;100997.69;5053610;28;20037;-62
2022/11/05 01:32:44;;;;;;;5.97;3.13;;;;;;;1.61;100.00;101003.63;5058633;28;20049;-61
2022/11/05 01:35:12;;;;;;;6.13;3.42;;;;;;;1.64;100.00;101019.06;5059983;28;20033;-62
2022/11/05 01:37:38;;;;;;;10.77;4.20;;;;;;;1.63;100.00;101027.03;5052799;28;20082;-62
2022/11/05 01:40:04;;;;;;;6.88;3.75;;;;;;;1.63;100.00;101032.28;5055831;28;20070;-61
2022/11/05 01:42:31;;;;;;;7.53;3.58;;;;;;;1.63;100.00;101040.13;5055641;28;20127;-59
2022/11/05 01:45:11;;;;;;;3.75;2.72;;;;;;;1.63;100.00;101032.28;5056828;28;20016;-61
2022/11/05 01:47:43;;;;;;;5.35;3.15;;;;;;;1.59;100.00;101023.00;5057165;28;20501;-60
2022/11/05 01:50:35;;;;;;;9.60;4.03;;;;;;;1.60;100.00;101019.41;5058123;28;20125;-61
2022/11/05 01:53:34;;;;;;;7.78;3.78;;;;;;;1.58;100.00;101010.88;5057188;28;20135;-58
2022/11/05 01:56:11;;;;;;;6.18;3.50;;;;;;;1.59;100.00;101007.31;5053750;28;20389;-62
2022/11/05 01:59:03;;;;;;;4.72;3.03;;;;;;;1.57;100.00;101006.59;5057047;28;20052;-61
2022/11/05 02:01:29;;;;;;;4.82;3.08;;;;;;;1.58;100.00;101013.50;5050756;28;20033;-61
2022/11/05 02:03:58;;;;;;;5.72;3.35;;;;;;;1.57;100.00;101002.19;5054505;28;20040;-61
2022/11/05 02:06:26;;;;;;;6.65;3.00;;;;;;;1.51;100.00;101007.91;5063497;28;20039;-62
2022/11/05 02:09:00;;;;;;;5.13;2.70;;;;;;;1.47;100.00;101001.25;5055454;28;20029;-61
2022/11/05 02:11:26;;;;;;;7.47;2.97;;;;;;;1.40;100.00;101006.13;5053675;28;20427;-61
2022/11/05 02:13:54;;;;;;;6.75;4.38;;;;;;;1.41;100.00;101004.34;5042109;28;20132;-61
2022/11/05 02:16:34;;;;;;;5.97;3.47;;;;;;;1.37;100.00;101002.91;5057014;28;20041;-61
2022/11/05 02:19:35;;;;;;;4.90;3.20;;;;;;;1.31;100.00;101002.44;5058349;28;20338;-60
2022/11/05 02:22:37;;;;;;;6.15;3.05;;;;;;;1.27;100.00;101005.41;5057674;28;20025;-60
2022/11/05 02:25:31;;;;;;;5.78;3.47;;;;;;;1.25;100.00;100996.84;5055234;28;20120;-61
2022/11/05 02:28:25;;;;;;;5.88;2.47;;;;;;;1.17;100.00;101000.06;5054378;28;20048;-61
2022/11/05 02:31:11;;;;;;;4.90;2.42;;;;;;;1.16;100.00;101008.00;5061156;28;20094;-61
2022/11/05 02:33:42;;;;;;;7.25;3.38;;;;;;;1.24;100.00;101003.00;5058596;28;20032;-60
2022/11/05 02:36:23;;;;;;;5.15;2.80;;;;;;;1.24;100.00;101010.84;5042304;28;20069;-61
2022/11/05 02:39:06;;;;;;;3.88;2.95;;;;;;;1.29;100.00;101004.34;5064242;28;20731;-61
2022/11/05 02:41:56;;;;;;;6.93;3.25;;;;;;;1.39;100.00;100994.00;5053964;28;20029;-60
2022/11/05 02:44:51;;;;;;;4.30;2.38;;;;;;;1.54;100.00;101005.03;5059155;28;20170;-61
2022/11/05 02:47:24;;;;;;;5.18;2.72;;;;;;;1.65;100.00;100998.97;5055829;28;20124;-59
2022/11/05 02:50:13;;;;;;;7.18;3.60;;;;;;;1.75;100.00;100997.28;5056093;28;20115;-61
2022/11/05 02:52:56;;;;;;;5.60;3.03;;;;;;;1.77;100.00;101003.25;5045249;28;20044;-61
2022/11/05 02:55:31;;;;;;;7.85;2.85;;;;;;;1.81;100.00;100998.59;5062720;28;20170;-62
2022/11/05 02:57:58;;;;;;;7.22;3.20;;;;;;;1.83;100.00;100996.69;5062235;28;20028;-62
2022/11/05 03:00:48;;;;;;;5.22;2.63;;;;;;;1.93;100.00;100990.59;5055221;28;20029;-61
2022/11/05 03:03:38;;;;;;;4.28;2.30;;;;;;;2.06;100.00;100992.25;5040857;28;20498;-62
2022/11/05 03:06:28;;;;;;;5.85;2.65;;;;;;;2.11;100.00;100990.09;5061559;28;20056;-63
2022/11/05 03:09:08;;;;;;;8.47;2.40;;;;;;;2.15;100.00;100981.06;5057815;28;20075;-61
2022/11/05 03:11:57;;;;;;;4.38;2.58;;;;;;;2.19;100.00;100977.22;5065604;28;20052;-61
2022/11/05 03:14:37;;;;;;;6.07;2.45;;;;;;;2.26;100.00;100978.38;5059837;28;20274;-61
2022/11/05 03:17:15;;;;;;;4.43;2.63;;;;;;;2.32;100.00;100975.28;5060641;28;20071;-61
2022/11/05 03:19:55;;;;;;;6.93;4.15;;;;;;;2.35;100.00;100976.78;5057636;28;20032;-61
2022/11/05 03:22:35;;;;;;;6.80;2.47;;;;;;;2.40;100.00;100972.00;5066707;28;20063;-61
2022/11/05 03:25:06;;;;;;;6.97;3.10;;;;;;;2.41;100.00;100968.47;5056587;28;20480;-61
2022/11/05 03:27:36;;;;;;;7.10;3.05;;;;;;;2.44;100.00;100970.00;5061153;28;20045;-61
2022/11/05 03:30:05;;;;;;;3.63;2.55;;;;;;;2.45;100.00;100971.63;5058542;28;20028;-61
2022/11/05 03:32:36;;;;;;;4.10;2.47;;;;;;;2.47;100.00;100964.50;5058864;28;20356;-60
2022/11/05 03:35:07;;;;;;;4.10;3.13;;;;;;;2.47;100.00;100964.50;5060545;28;20033;-61
2022/11/05 03:37:38;;;;;;;4.28;2.50;;;;;;;2.46;100.00;100957.63;5061018;28;20150;-62
2022/11/05 03:40:07;;;;;;;5.53;2.25;;;;;;;2.46;100.00;100962.84;5055330;28;20037;-61
2022/11/05 03:42:35;;;;;;;4.70;3.38;;;;;;;2.40;100.00;100959.78;5046429;28;20036;-61
2022/11/05 03:45:07;;;;;;;9.85;3.63;;;;;;;2.41;100.00;100965.84;5052428;28;20035;-61
2022/11/05 03:47:39;;;;;;;7.28;3.15;;;;;;;2.49;100.00;100966.03;5056439;28;20062;-62
2022/11/05 03:50:27;;;;;;;6.10;3.28;;;;;;;2.57;100.00;100961.00;5056880;28;20115;-61
2022/11/05 03:52:59;;;;;;;7.45;2.72;;;;;;;2.57;100.00;100961.00;5058049;28;20059;-62
2022/11/05 03:55:34;;;;;;;5.68;2.83;;;;;;;2.55;100.00;100962.91;5059131;28;20052;-61
2022/11/05 03:58:02;;;;;;;6.70;2.90;;;;;;;2.51;100.00;100956.28;5064916;28;20386;-61
2022/11/05 04:00:28;;;;;;;6.05;3.53;;;;;;;2.50;100.00;100945.91;5062642;28;20082;-61
2022/11/05 04:02:54;;;;;;;6.88;2.75;;;;;;;2.52;100.00;100946.63;5065515;28;20028;-61
2022/11/05 04:05:19;;;;;;;6.22;3.30;;;;;;;2.57;100.00;100953.13;5064132;28;20032;-62
2022/11/05 04:13:25;;;;;;;2.25;2.05;;;;;;;2.70;100.00;100970.44;5066317;28;20065;-61
2022/11/05 04:18:39;;;;;;;4.80;2.38;;;;;;;2.82;100.00;100975.50;5057515;28;20035;-61
2022/11/05 04:24:07;;;;;;;7.65;2.45;;;;;;;2.94;100.00;100988.50;5052114;28;20070;-61
2022/11/05 04:26:33;;;;;;;5.10;2.88;;;;;;;3.01;100.00;100984.41;5066795;28;20119;-61
2022/11/05 04:31:43;;;;;;;3.58;2.40;;;;;;;3.15;100.00;100978.00;5055881;28;20040;-61
2022/11/05 04:34:08;;;;;;;7.00;2.22;;;;;;;3.22;100.00;100982.59;5057940;28;20021;-61
2022/11/05 04:36:33;;;;;;;5.93;2.65;;;;;;;3.27;100.00;100980.41;5062591;28;20059;-61
2022/11/05 04:38:59;;;;;;;4.78;2.38;;;;;;;3.33;100.00;100984.31;5055574;28;20029;-61
2022/11/05 04:41:25;;;;;;;5.78;2.58;;;;;;;3.41;100.00;100981.84;5051073;28;20068;-61
2022/11/05 04:43:50;;;;;;;4.20;3.25;;;;;;;3.40;100.00;100979.34;5050228;28;20621;-61
2022/11/05 04:46:15;;;;;;;3.50;2.20;;;;;;;3.38;100.00;100979.50;5057828;28;20039;-59
2022/11/05 04:48:41;;;;;;;4.07;2.28;;;;;;;3.37;100.00;100982.25;5060854;28;20020;-61
2022/11/05 04:51:06;;;;;;;7.15;2.70;;;;;;;3.36;100.00;100972.75;5056718;28;20451;-61
2022/11/05 04:53:31;;;;;;;3.53;2.35;;;;;;;3.34;100.00;100972.03;5052878;28;20526;-59
2022/11/05 04:56:18;;;;;;;5.78;3.72;;;;;;;3.36;100.00;100970.94;5051903;28;20123;-62
2022/11/05 04:58:43;;;;;;;4.05;1.58;;;;;;;3.29;100.00;100967.19;5053983;28;20382;-62
2022/11/05 05:01:18;;;;;;;3.95;2.03;;;;;;;3.30;100.00;100966.22;5058598;28;20025;-61
2022/11/05 05:03:49;;;;;;;6.93;2.70;;;;;;;3.21;100.00;100956.53;5056064;28;20037;-62
2022/11/05 05:06:15;;;;;;;4.75;2.20;;;;;;;3.10;100.00;100949.59;5059028;28;20469;-61
2022/11/05 05:08:40;;;;;;;2.47;2.15;;;;;;;3.03;100.00;100951.06;5057452;28;20044;-61
2022/11/05 05:11:09;;;;;;;4.00;2.55;;;;;;;3.08;100.00;100955.91;5057435;28;20422;-61
2022/11/05 05:13:34;;;;;;;5.70;2.13;;;;;;;3.11;100.00;100953.84;5053678;28;20115;-61
2022/11/05 05:16:07;;;;;;;4.55;2.78;;;;;;;3.18;100.00;100951.56;5053189;28;20478;-62
2022/11/05 05:18:33;;;;;;;8.15;2.40;;;;;;;3.12;100.00;100957.31;5059562;28;20130;-62
2022/11/05 05:23:43;;;;;;;4.13;2.20;;;;;;;3.25;100.00;100955.28;5056563;28;20401;-61
2022/11/05 05:26:08;;;;;;;3.97;2.20;;;;;;;3.25;100.00;100950.91;5055574;28;20033;-61
2022/11/05 05:28:34;;;;;;;2.70;2.03;;;;;;;3.25;100.00;100950.91;5053602;28;20102;-61
2022/11/05 05:31:00;;;;;;;3.63;2.25;;;;;;;3.26;100.00;100952.53;5058597;28;20098;-62
2022/11/05 05:33:26;;;;;;;4.40;2.38;;;;;;;3.31;100.00;100954.78;5050627;28;20028;-61
2022/11/05 05:35:52;;;;;;;1.40;1.30;;;;;;;3.39;100.00;100954.94;5054785;28;20455;-61
2022/11/05 05:38:18;;;;;;;3.53;2.22;;;;;;;3.44;100.00;100958.00;5053481;28;20108;-61
2022/11/05 05:40:43;;;;;;;6.60;2.70;;;;;;;3.45;100.00;100946.53;5054173;28;20032;-61
2022/11/05 05:43:08;;;;;;;5.53;2.78;;;;;;;3.49;100.00;100947.94;5053446;28;20060;-61
2022/11/05 05:45:35;;;;;;;5.03;2.17;;;;;;;3.52;100.00;100946.84;5058049;28;20052;-61
2022/11/05 05:48:01;;;;;;;3.40;2.40;;;;;;;3.55;100.00;100943.13;5050256;28;20098;-61
2022/11/05 05:50:26;;;;;;;10.18;2.55;;;;;;;3.58;100.00;100945.47;5053297;28;20033;-61
2022/11/05 05:52:52;;;;;;;8.65;4.78;;;;;;;3.61;100.00;100943.41;5057584;28;20109;-61
2022/11/05 05:55:17;;;;;;;4.50;2.83;;;;;;;3.63;100.00;100948.53;5044426;28;20039;-61
2022/11/05 05:57:43;;;;;;;3.45;1.85;;;;;;;3.63;100.00;100944.09;5060614;28;20470;-61
2022/11/05 06:00:08;;;;;;;6.05;1.75;;;;;;;3.68;100.00;100939.28;5051098;28;21132;-62
2022/11/05 06:02:34;;;;;;;1.95;1.40;;;;;;;3.69;100.00;100929.63;5056580;28;20029;-61
2022/11/05 06:04:59;;;;;;;4.55;2.40;;;;;;;3.74;100.00;100943.16;5039598;28;20039;-61
2022/11/05 06:07:24;;;;;;;4.20;2.15;;;;;;;3.81;100.00;100943.44;5060487;28;20108;-61
2022/11/05 06:09:50;;;;;;;5.68;2.65;;;;;;;3.81;100.00;100941.66;5057878;28;20017;-62
2022/11/05 06:12:15;;;;;;;4.07;1.77;;;;;;;3.82;100.00;100935.47;5061068;28;20035;-62
2022/11/05 06:14:40;;;;;;;5.00;2.28;;;;;;;3.86;100.00;100925.50;5059406;28;20020;-61
2022/11/05 06:17:06;;;;;;;4.47;2.45;;;;;;;3.94;100.00;100936.97;5052639;28;20252;-62
2022/11/05 06:19:31;;;;;;;4.20;2.65;;;;;;;3.96;100.00;100939.47;5057908;28;20032;-62
2022/11/05 06:21:57;;;;;;;5.40;2.15;;;;;;;4.02;100.00;100932.84;5056978;28;20044;-61
2022/11/05 06:24:22;;;;;;;4.35;2.00;;;;;;;4.07;100.00;100939.31;5058306;28;20025;-62
2022/11/05 06:26:47;;;;;;;7.38;2.22;;;;;;;4.11;100.00;100940.72;5059469;28;20048;-61
2022/11/05 06:29:13;;;;;;;5.07;1.92;;;;;;;4.13;100.00;100933.56;5053486;28;20529;-62
2022/11/05 06:31:38;;;;;;;5.35;2.53;;;;;;;4.19;100.00;100929.53;5058310;28;20509;-62
2022/11/05 06:34:03;;;;;;;5.47;2.08;;;;;;;4.22;100.00;100924.00;5057600;28;20029;-60
2022/11/05 06:36:29;;;;;;;3.95;1.95;;;;;;;4.24;100.00;100929.13;5055107;28;20032;-62
2022/11/05 06:38:54;;;;;;;5.68;1.80;;;;;;;4.23;100.00;100925.66;5059482;28;20025;-61
2022/11/05 06:41:19;;;;;;;3.20;1.80;;;;;;;4.23;100.00;100922.19;5036653;28;21049;-63
2022/11/05 06:43:45;;;;;;;5.60;2.13;;;;;;;4.26;100.00;100924.53;5054428;28;20025;-62
2022/11/05 06:46:11;;;;;;;5.97;2.53;;;;;;;4.31;100.00;100917.06;5053234;28;20037;-61
2022/11/05 06:48:37;;;;;;;3.60;1.38;;;;;;;4.35;100.00;100915.84;5052649;28;20025;-62
2022/11/05 06:51:03;;;;;;;4.10;1.85;;;;;;;4.37;100.00;100912.09;5057721;28;20043;-61
2022/11/05 06:53:29;;;;;;;2.83;1.45;;;;;;;4.38;100.00;100916.38;5065152;28;20407;-61
2022/11/05 06:55:54;;;;;;;2.15;1.23;;;;;;;4.42;100.00;100916.94;5060492;28;20081;-61
2022/11/05 06:58:20;;;;;;;2.78;1.75;;;;;;;4.44;100.00;100914.16;5052989;28;20551;-61
2022/11/05 07:00:45;;;;;;;1.92;1.80;;;;;;;4.46;100.00;100920.13;5059161;28;20397;-63
2022/11/05 07:03:12;;;;;;;3.78;1.52;;;;;;;4.42;100.00;100919.56;5056521;28;20110;-62
2022/11/05 07:05:42;;;;;;;2.08;1.50;;;;;;;4.43;100.00;100917.78;5040145;28;20434;-62
2022/11/05 07:08:07;;;;;;;5.45;2.08;;;;;;;4.42;100.00;100922.19;5049066;28;20119;-63
2022/11/05 07:10:32;;;;;;;2.45;1.38;;;;;;;4.44;100.00;100916.78;5053655;28;20115;-62
2022/11/05 07:12:58;;;;;;;3.13;1.45;;;;;;;4.48;100.00;100918.19;5055768;28;20028;-63
2022/11/05 07:15:23;;;;;;;3.85;1.60;;;;;;;4.53;100.00;100922.03;5057955;28;20059;-62
2022/11/05 07:17:49;;;;;;;2.78;2.30;;;;;;;4.61;100.00;100916.06;5057802;28;20031;-62
2022/11/05 07:20:15;;;;;;;1.48;0.82;;;;;;;4.66;100.00;100921.75;5064203;28;20033;-63
2022/11/05 07:22:40;;;;;;;3.40;1.65;;;;;;;4.72;100.00;100925.59;5055086;28;20482;-62
2022/11/05 07:25:06;;;;;;;1.83;1.73;;;;;;;4.78;100.00;100925.03;5056632;28;20040;-62
2022/11/05 07:27:37;;;;;;;3.47;1.13;;;;;;;4.88;100.00;100922.38;5059334;28;20052;-62
2022/11/05 07:30:05;;;;;;;2.97;1.80;;;;;;;4.91;100.00;100920.28;5058594;28;20078;-63
2022/11/05 07:32:36;;;;;;;4.22;1.52;;;;;;;4.97;100.00;100924.97;5059695;28;20095;-62
2022/11/05 07:35:01;;;;;;;3.15;1.55;;;;;;;4.94;100.00;100922.63;5059259;28;20120;-62
2022/11/05 07:37:26;;;;;;;7.63;1.23;;;;;;;4.99;100.00;100927.47;5057875;28;20513;-62
2022/11/05 07:39:51;;;;;;;3.55;1.50;;;;;;;5.01;100.00;100930.78;5049852;28;20029;-62
2022/11/05 07:42:17;;;;;;;3.70;1.40;;;;;;;4.98;100.00;100931.91;5057129;28;20474;-62
2022/11/05 07:44:42;;;;;;;1.17;0.95;;;;;;;4.99;100.00;100932.72;5059639;28;20074;-63
2022/11/05 07:47:07;;;;;;;2.67;2.17;;;;;;;5.02;100.00;100935.88;5053083;28;20070;-62
2022/11/05 07:49:33;;;;;;;1.90;1.17;;;;;;;5.07;100.00;100938.09;5048229;28;20070;-63
2022/11/05 07:51:58;;;;;;;1.40;0.88;;;;;;;5.10;100.00;100939.59;5056301;28;20075;-60
2022/11/05 07:54:25;;;;;;;2.50;1.52;;;;;;;5.17;100.00;100930.16;5059507;28;20053;-62
2022/11/05 07:56:50;;;;;;;1.73;1.20;;;;;;;5.22;100.00;100935.81;5060015;28;20088;-62
2022/11/05 07:59:16;;;;;;;2.05;1.83;;;;;;;5.27;100.00;100925.69;5058258;28;20187;-63
2022/11/05 08:01:41;;;;;;;4.70;1.35;;;;;;;5.33;100.00;100934.78;5061205;28;20024;-62
2022/11/05 08:04:06;;;;;;;1.95;1.10;;;;;;;5.37;100.00;100926.47;5060536;28;20117;-62
2022/11/05 08:06:32;;;;;;;2.40;1.58;;;;;;;5.39;100.00;100931.56;5054763;28;20119;-63
2022/11/05 08:08:57;;;;;;;3.90;1.50;;;;;;;5.42;100.00;100931.28;5053005;28;20024;-63
2022/11/05 08:11:22;;;;;;;1.23;1.13;;;;;;;5.46;100.00;100932.66;5041454;28;20028;-63
2022/11/05 08:13:48;;;;;;;1.00;0.90;;;;;;;5.54;100.00;100938.00;5042195;28;20466;-63
2022/11/05 08:16:14;;;;;;;4.47;1.30;;;;;;;5.60;100.00;100936.56;5059742;28;20043;-64
2022/11/05 08:18:39;;;;;;;1.60;1.45;;;;;;;5.65;100.00;100929.91;5057456;28;20029;-64
2022/11/05 08:21:05;;;;;;;5.18;2.55;;;;;;;5.70;100.00;100926.81;5034384;28;20032;-63
2022/11/05 08:23:31;;;;;;;2.28;1.27;;;;;;;5.76;100.00;100931.50;5042643;28;20040;-64
2022/11/05 08:25:57;;;;;;;3.80;1.63;;;;;;;5.84;100.00;100936.84;5041410;28;20646;-65
2022/11/05 08:28:25;;;;;;;2.08;1.27;;;;;;;5.91;100.00;100939.69;5060472;28;20076;-65
2022/11/05 08:30:52;;;;;;;1.67;1.00;;;;;;;5.96;100.00;100936.66;5058738;28;20489;-65
2022/11/05 08:33:19;;;;;;;3.47;1.58;;;;;;;5.98;100.00;100934.72;5053352;28;20025;-65
2022/11/05 08:35:46;;;;;;;1.63;0.73;;;;;;;6.03;100.00;100937.72;5054295;28;20032;-65
2022/11/05 08:38:14;;;;;;;4.25;2.10;;;;;;;6.04;100.00;100934.09;5057413;28;20021;-65
2022/11/05 08:40:41;;;;;;;1.52;1.25;;;;;;;6.06;100.00;100929.50;5051020;28;20016;-66
2022/11/05 08:43:08;;;;;;;6.57;1.73;;;;;;;6.09;100.00;100923.94;5052108;28;20029;-65
2022/11/05 08:45:35;;;;;;;2.28;1.17;;;;;;;6.13;100.00;100919.22;5048540;28;20048;-64
2022/11/05 08:48:09;;;;;;;9.70;1.77;;;;;;;6.19;100.00;100914.16;5052259;28;20728;-65
2022/11/05 08:50:35;;;;;;;2.85;1.48;;;;;;;6.27;100.00;100924.78;5056855;28;20064;-65
2022/11/05 08:53:01;;;;;;;1.65;1.30;;;;;;;6.39;100.00;100916.63;5051116;28;20033;-65
2022/11/05 08:55:26;;;;;;;3.58;2.22;;;;;;;6.40;100.00;100919.13;5028972;28;20021;-65
2022/11/05 08:57:59;;;;;;;7.03;2.08;;;;;;;6.45;100.00;100916.00;5039595;28;20087;-65
2022/11/05 09:00:27;;;;;;;4.95;1.33;;;;;;;6.48;100.00;100899.91;5044344;28;20494;-65
2022/11/05 09:02:52;;;;;;;2.63;1.27;;;;;;;6.53;100.00;100900.25;5047272;28;20037;-65
2022/11/05 09:05:18;;;;;;;1.98;1.55;;;;;;;6.64;100.00;100897.38;5051399;28;20033;-65
2022/11/05 09:07:43;;;;;;;4.22;1.88;;;;;;;6.74;100.00;100898.13;5040342;28;20151;-65
2022/11/05 09:10:09;;;;;;;2.45;0.90;;;;;;;6.82;100.00;100899.16;5043718;28;20495;-65
2022/11/05 09:12:34;;;;;;;1.80;1.13;;;;;;;6.91;100.00;100901.66;5045993;28;20474;-65
2022/11/05 09:15:01;;;;;;;3.65;0.85;;;;;;;6.99;100.00;100900.88;5048352;28;20029;-65
2022/11/05 09:17:26;;;;;;;3.13;1.60;;;;;;;7.03;100.00;100902.22;5058122;28;20509;-65
2022/11/05 09:19:51;;;;;;;3.15;0.98;;;;;;;7.07;100.00;100893.00;5055456;28;20025;-65
2022/11/05 09:22:17;;;;;;;4.63;1.05;;;;;;;7.11;100.00;100880.34;5053418;28;20037;-65
2022/11/05 09:24:42;;;;;;;5.25;2.13;;;;;;;7.15;100.00;100890.41;5036561;28;20433;-65
2022/11/05 09:27:09;;;;;;;5.22;1.45;;;;;;;7.15;100.00;100898.31;5050581;28;20551;-65
2022/11/05 09:29:35;;;;;;;6.47;1.45;;;;;;;7.12;100.00;100897.78;5057466;28;20036;-65
2022/11/05 09:32:01;;;;;;;9.98;2.63;;;;;;;7.14;100.00;100896.66;5061205;28;20529;-64
2022/11/05 09:34:26;;;;;;;15.95;3.90;;;;;;;7.18;100.00;100887.44;5060973;28;20033;-65
2022/11/05 09:36:52;;;;;;;7.32;2.70;;;;;;;7.24;100.00;100893.91;5030275;28;20492;-65
2022/11/05 09:39:17;;;;;;;4.85;1.92;;;;;;;7.31;100.00;100881.72;5053107;28;20041;-65
2022/11/05 09:41:44;;;;;;;5.65;1.80;;;;;;;7.37;100.00;100878.44;5055102;28;20675;-65
2022/11/05 09:44:19;;;;;;;4.82;1.20;;;;;;;7.38;100.00;100874.84;5054027;28;20024;-65
2022/11/05 09:46:50;;;;;;;8.60;3.72;;;;;;;7.42;100.00;100881.44;5054833;28;20037;-65
2022/11/05 09:49:29;;;;;;;10.80;3.95;;;;;;;7.50;100.00;100880.63;5039274;28;20020;-65
2022/11/05 09:51:57;;;;;;;12.02;4.20;;;;;;;7.55;100.00;100875.69;5058710;28;20115;-65
2022/11/05 09:54:24;;;;;;;11.55;4.95;;;;;;;7.60;100.00;100876.03;5058854;28;20631;-65
2022/11/05 09:56:51;;;;;;;9.43;2.58;;;;;;;7.64;100.00;100866.81;5051624;28;20539;-66
2022/11/05 09:59:19;;;;;;;6.10;0.98;;;;;;;7.64;100.00;100850.97;5052972;28;20102;-65
2022/11/05 10:01:46;;;;;;;9.85;2.80;;;;;;;7.71;100.00;100834.47;5062744;28;20478;-65
2022/11/05 10:04:17;;;;;;;4.30;1.35;;;;;;;7.80;100.00;100834.34;5062673;28;20111;-65
2022/11/05 10:06:51;;;;;;;1.52;1.02;;;;;;;7.86;100.00;100844.22;5051951;28;20505;-65
2022/11/05 10:09:23;;;;;;;3.88;0.80;;;;;;;7.91;100.00;100845.56;5049209;28;20786;-65
2022/11/05 10:11:59;;;;;;;6.03;0.73;;;;;;;7.94;100.00;100840.75;5054051;28;20025;-65
2022/11/05 10:14:37;;;;;;;3.78;1.40;;;;;;;7.98;100.00;100838.63;5054513;28;20400;-65
2022/11/05 10:17:11;;;;;;;3.80;1.20;;;;;;;8.02;100.00;100846.03;5057245;28;20460;-65
2022/11/05 10:19:48;;;;;;;2.15;0.93;;;;;;;8.12;100.00;100842.41;5051993;28;20406;-65
2022/11/05 10:22:15;;;;;;;3.30;0.90;;;;;;;8.15;100.00;100836.78;5057844;28;20051;-65
2022/11/05 10:24:46;;;;;;;1.85;0.77;;;;;;;8.21;100.00;100814.97;5057430;28;20056;-65
2022/11/05 10:27:22;;;;;;;4.70;0.98;;;;;;;8.33;100.00;100805.72;5041231;28;20043;-65
2022/11/05 10:29:48;;;;;;;2.67;0.70;;;;;;;8.45;100.00;100809.69;5063441;28;20060;-65
2022/11/05 10:32:27;;;;;;;1.25;0.80;;;;;;;8.62;100.00;100788.50;5044262;28;20478;-65
2022/11/05 10:34:56;;;;;;;2.67;0.85;;;;;;;8.74;100.00;100789.78;5063247;28;20103;-65
2022/11/05 10:37:23;;;;;;;4.75;1.40;;;;;;;8.86;100.00;100793.72;5061980;28;20507;-65
2022/11/05 10:39:48;;;;;;;2.30;0.95;;;;;;;8.95;100.00;100782.06;5056905;28;20065;-65
2022/11/05 10:42:34;;;;;;;2.50;1.10;;;;;;;9.03;100.00;100783.03;5055451;28;20055;-64
2022/11/05 10:45:15;;;;;;;1.13;0.82;;;;;;;9.11;100.00;100785.63;5056546;28;20035;-64
2022/11/05 10:47:43;;;;;;;1.55;0.90;;;;;;;9.06;100.00;100787.97;5065593;28;20060;-64
2022/11/05 10:50:11;;;;;;;1.88;0.68;;;;;;;9.08;100.00;100783.34;5052415;28;20441;-65
2022/11/05 10:52:38;;;;;;;2.15;0.50;;;;;;;9.09;100.00;100790.31;5067190;28;20028;-64
2022/11/05 10:55:15;;;;;;;2.67;0.68;;;;;;;9.10;100.00;100771.59;5065138;28;20381;-64
2022/11/05 10:57:40;;;;;;;1.52;0.80;;;;;;;9.07;100.00;100768.47;5054806;28;20514;-65
2022/11/05 11:00:15;;;;;;;0.52;0.52;;;;;;;9.08;100.00;100757.72;5057137;28;20060;-65
2022/11/05 11:02:50;;;;;;;3.03;0.80;;;;;;;9.13;100.00;100765.94;5056430;28;20112;-64
2022/11/05 11:05:28;;;;;;;2.15;0.45;;;;;;;9.17;100.00;100759.31;5061123;28;20037;-64
2022/11/05 11:07:57;;;;;;;0.50;0.45;;;;;;;9.21;100.00;100749.19;5050790;28;20389;-64
2022/11/05 11:10:23;;;;;;;1.45;0.40;;;;;;;9.23;100.00;100751.69;5052263;28;20033;-63
2022/11/05 11:12:50;;;;;;;0.65;0.65;;;;;;;9.31;100.00;100747.16;5049112;28;20070;-63
2022/11/05 11:15:36;;;;;;;1.30;0.50;;;;;;;9.42;100.00;100734.50;5028195;28;20093;-64
2022/11/05 11:18:24;;;;;;;1.73;1.02;;;;;;;9.46;100.00;100733.16;5050118;28;20041;-64
2022/11/05 11:20:49;;;;;;;1.92;1.00;;;;;;;9.49;100.00;100738.09;5045118;28;21003;-63
2022/11/05 11:23:16;;;;;;;1.08;0.43;;;;;;;9.58;100.00;100747.63;5044766;28;20374;-64
2022/11/05 11:25:51;;;;;;;4.30;0.68;;;;;;;9.68;100.00;100742.91;5062432;28;20024;-63
2022/11/05 11:28:25;;;;;;;6.32;0.68;;;;;;;9.70;100.00;100732.94;5053115;28;20041;-63
2022/11/05 11:31:03;;;;;;;0.95;0.77;;;;;;;9.72;100.00;100738.88;5066018;28;20118;-63
2022/11/05 11:33:31;;;;;;;3.05;1.00;;;;;;;9.76;100.00;100728.78;5056605;28;20025;-63
2022/11/05 11:35:57;;;;;;;1.75;0.68;;;;;;;9.79;100.00;100717.81;5061994;28;20040;-62
2022/11/05 11:38:25;;;;;;;1.42;0.65;;;;;;;9.85;100.00;100716.28;5071028;28;20024;-63
2022/11/05 11:41:18;;;;;;;5.13;0.80;;;;;;;9.91;100.00;100718.19;5060087;28;20043;-63
2022/11/05 11:43:44;;;;;;;5.80;0.75;;;;;;;9.89;100.00;100714.94;5059749;28;20094;-64
2022/11/05 11:46:19;;;;;;;1.30;0.38;;;;;;;9.94;100.00;100712.53;5062271;28;20021;-64
2022/11/05 11:48:47;;;;;;;0.90;0.32;;;;;;;9.94;100.00;100707.22;5061576;28;20036;-64
2022/11/05 11:51:18;;;;;;;1.42;0.35;;;;;;;9.97;100.00;100702.41;5062228;28;20082;-64
2022/11/05 11:53:47;;;;;;;1.77;0.63;;;;;;;9.98;100.00;100692.63;5054741;28;20032;-64
2022/11/05 11:56:16;;;;;;;0.98;0.13;;;;;;;10.01;100.00;100684.31;5053570;28;20024;-64
2022/11/05 11:58:45;;;;;;;1.40;0.55;;;;;;;10.05;100.00;100681.13;5064360;28;20366;-64
2022/11/05 12:01:35;;;;;;;4.47;0.73;;;;;;;10.10;100.00;100659.38;5060960;28;20035;-64
2022/11/05 12:04:31;;;;;;;5.78;1.35;;;;;;;10.16;100.00;100657.84;5057520;28;20060;-64
2022/11/05 12:07:18;;;;;;;3.65;0.47;;;;;;;10.24;100.00;100655.88;5049395;28;20067;-64
2022/11/05 12:10:10;;;;;;;1.02;0.40;;;;;;;10.26;100.00;100653.88;5059730;28;20052;-61
2022/11/05 12:12:53;;;;;;;8.90;1.35;;;;;;;10.32;100.00;100652.34;5057270;28;20059;-61
2022/11/05 12:15:31;;;;;;;4.88;1.13;;;;;;;10.33;100.00;100643.41;5055919;28;20032;-62
2022/11/05 12:18:18;;;;;;;5.40;0.85;;;;;;;10.38;100.00;100637.56;5059605;28;20089;-61
2022/11/05 12:21:20;;;;;;;2.50;0.95;;;;;;;10.37;100.00;100620.00;5062140;28;20430;-61
2022/11/05 12:24:07;;;;;;;2.53;0.68;;;;;;;10.35;100.00;100616.69;5056698;28;20133;-60